Airfield :
LOGIN :

Register | Disclaimer

   EN    FR    IT 

 










Legend :    VFR   Marginal VFR   IFR   Intensive IFR   Very Intensive IFR
Visi :
Ceiling :
>= 8 km
>= 3000ft
5 to 8 km
1000 to 3000 ft
1500m to 5 km
500 to 1000 ft
800 to 1500m
200 to 500 ft
< 800m
< 200 ft
Symbols :   Thunderstorms  Fog  Heavy snow  Heavy precipitations  Wind > 20 kt
SIGMETs :     Misc.  Thunderstorms  Icing  Turbulence  Mountain Waves  Volcanic Ashes







- Airport Elevation : 479 ft
- IATA code : DOL
- Download approach charts


LFRG - Deauville

CURRENT METAR :
  • 201900Z AUTO 30017KT 9999 BKN004/// BKN032/// BKN043/// ///TCU 09/09 Q1004 TEMPO 4000 RADZ BKN012

EXPIRED METARs :
  • 201830Z AUTO 30018G30KT 270V330 9999 OVC003 09/09 Q1003 TEMPO 4000 RADZ BKN012 BECMG 30010KT
  • 201800Z AUTO 30019G30KT 2700 RA BR BKN003/// OVC028/// ///TCU 09/09 Q1003 TEMPO 4000 RADZ BKN012 BECMG 30010KT
  • 201730Z AUTO 29018G31KT 5000 -RA BR OVC004/// ///TCU 09/09 Q1002 TEMPO 2500 RADZ BKN012 BECMG 30010KT
  • 201700Z AUTO 29018KT 1700 BR VV/// 10/10 Q1001 TEMPO RADZ BKN002 BECMG 28020G30KT
  • 201630Z AUTO 29021KT 0900 0600 R30/0750D FG VV/// 10/10 Q1001 TEMPO 2500 RADZ BKN002 BECMG 28020G30KT

TAF AMD TAF LFRG
Valid from the 20 at 17:00 until the 21 at 00:00 UTC


201722Z 2017/2024 28020G30KT 9999 BKN015
TEMPO 2017/2019 2000 RADZ BR VV///
TEMPO 2019/2024 4000 RADZ BKN012
BECMG 2019/2021 30010KT
ATIS : +33 2 31 65 65 36
No reported NOTAMs for that airfield.
3 SIGMETs reported for the Paris FIR (LFFF) :
 
Severe turbulence
LFFF SIGMET 8 VALID 202100/210100 LFPW
LFFF PARIS FIR/UIR SEV TURB FCST NE OF LINE N5100 E00145 - N4815 E00530 FL180/290 MOV NE 20KT NC=
Severe turbulence
LFFF SIGMET 7 VALID 201700/202100 LFPW
LFFF PARIS FIR/UIR SEV TURB FCST NE OF LINE N4815 E00515 - N5045 E00100 FL180/310 MOV NE 15KT NC=
Severe turbulence
LFFF SIGMET 6 VALID 201600/202000 LFPW
LFFF PARIS FIR/UIR SEV TURB FCST WI N4800 W00015 - N5000 W00015 - N5030 E00045 - N4800 E00245 - N4800 W00015 SFC/FL060 STNR WKN=



MET'MAP, your aeronautical weather chart ! - Copyright ORBIFLY December 2007 - Disclaimer

ORBIFLY MET'MAP TEAM :

Programming & Development : Alexandra Zaïnal
Concept & Development : Baudouin d'Aumeries
Co-Development & Prog : Marc-Olivier Méhu
Technical & hardware support : Manuel Goepfert

Contact : metmap@orbifly.com




SOURCES & CREDITS :

   NOAA